KCSQ/CSQ METAR and TAF weather

Enter ICAO airport designator
Station Type Date Time Source
KCSQ METAR 2020/06/02 18:35 UTC NOAA

KCSQ 021835Z AUTO 21016G23KT 10SM CLR 31/20 A2991 RMK AO2


Station Type Date Time Source
KCSQ Decoded METAR 2020/06/02 18:35 UTC NOAA

Creston, IA, United States (KCSQ) 41-01N 094-22W
Jun 02, 2020 - 02:35 PM EDT / 2020.06.02 1835 UTC
Wind: from the SSW (210 degrees) at 18 MPH (16 KT) gusting to 26 MPH (23 KT):0
Visibility: 10 mile(s):0
Sky conditions: clear
Temperature: 87 F (31 C)
Dew Point: 68 F (20 C)
Relative Humidity: 52%
Pressure (altimeter): 29.91 in. Hg (1012 hPa)
ob: KCSQ 021835Z AUTO 21016G23KT 10SM CLR 31/20 A2991 RMK AO2
cycle: 18

Station Type Date Time Source
KCSQ TAF UTC NOAA

Error!

Example: see airport list